createdAt,value
2022-11-25T00:02:19.772Z,21.33
2022-11-25T00:05:20.719Z,20.92
2022-11-25T00:08:21.722Z,18.23
2022-11-25T00:11:22.730Z,27.63
2022-11-25T00:14:19.764Z,23.15
2022-11-25T00:17:20.761Z,23.60
2022-11-25T00:20:21.762Z,16.75
2022-11-25T00:23:22.747Z,20.30
2022-11-25T00:26:30.741Z,22.10
2022-11-25T00:29:31.763Z,19.70
2022-11-25T00:32:32.713Z,21.63
2022-11-25T00:35:34.771Z,21.80
2022-11-25T00:38:35.726Z,17.83
2022-11-25T00:41:54.747Z,20.13
2022-11-25T00:44:55.745Z,21.92
2022-11-25T00:47:56.777Z,18.17
2022-11-25T00:50:57.728Z,14.50
2022-11-25T00:53:59.256Z,22.55
2022-11-25T00:56:59.749Z,25.55
2022-11-25T01:00:00.755Z,25.60
2022-11-25T01:03:01.745Z,24.60
2022-11-25T01:06:02.755Z,16.88
2022-11-25T01:09:03.777Z,24.45
2022-11-25T01:12:05.764Z,21.45
2022-11-25T01:15:06.761Z,21.15
2022-11-25T01:18:07.731Z,22.58
2022-11-25T01:21:08.751Z,12.55
2022-11-25T01:24:09.765Z,21.80
2022-11-25T01:27:10.761Z,16.15
2022-11-25T01:30:11.806Z,17.92
2022-11-25T01:33:12.770Z,26.08
2022-11-25T01:36:18.803Z,24.40
2022-11-25T01:39:19.758Z,18.15
2022-11-25T01:42:20.762Z,20.90
2022-11-25T01:45:45.789Z,13.25
2022-11-25T01:48:51.755Z,20.45
2022-11-25T01:52:00.771Z,21.67
2022-11-25T01:55:08.806Z,16.55
2022-11-25T01:58:26.777Z,15.75
2022-11-25T02:01:28.844Z,15.73
2022-11-25T02:04:30.802Z,14.00
2022-11-25T02:07:42.842Z,14.18
2022-11-25T02:10:45.794Z,21.42
2022-11-25T02:13:46.766Z,17.75
2022-11-25T02:16:47.849Z,20.92
2022-11-25T02:20:09.774Z,15.90
2022-11-25T02:23:12.766Z,29.67
2022-11-25T02:26:13.785Z,15.73
2022-11-25T02:29:16.738Z,17.30
2022-11-25T02:32:17.766Z,14.32
2022-11-25T02:35:40.772Z,12.15
2022-11-25T02:38:50.803Z,20.77
2022-11-25T02:41:54.780Z,12.98
2022-11-25T02:44:55.804Z,25.70
2022-11-25T02:47:56.774Z,14.40
2022-11-25T02:50:57.793Z,24.85
2022-11-25T02:53:58.777Z,22.83
2022-11-25T02:56:59.806Z,17.02
2022-11-25T03:00:02.993Z,22.00
2022-11-25T03:03:06.909Z,19.10
2022-11-25T03:06:07.799Z,22.95
2022-11-25T03:09:08.828Z,17.33
2022-11-25T03:12:28.049Z,18.45
2022-11-25T03:15:29.224Z,23.92
2022-11-25T03:18:29.798Z,18.55
2022-11-25T03:21:30.792Z,26.92
2022-11-25T03:24:31.828Z,11.23
2022-11-25T03:27:32.800Z,14.52
2022-11-25T03:30:36.821Z,23.70
2022-11-25T03:33:37.776Z,14.55
2022-11-25T03:36:38.884Z,15.63
2022-11-25T03:39:39.787Z,21.98
2022-11-25T03:42:40.811Z,18.23
2022-11-25T03:45:42.855Z,18.98
2022-11-25T03:48:43.819Z,14.57
2022-11-25T03:51:44.806Z,28.75
2022-11-25T03:54:46.812Z,19.55
2022-11-25T03:57:48.832Z,16.98
2022-11-25T04:00:51.830Z,17.05
2022-11-25T04:03:52.961Z,19.73
2022-11-25T04:06:53.803Z,21.52
2022-11-25T04:09:54.826Z,11.85
2022-11-25T04:12:58.813Z,19.35
2022-11-25T04:16:03.817Z,19.52
2022-11-25T04:19:04.808Z,18.27
2022-11-25T04:22:07.829Z,23.00
2022-11-25T04:25:11.819Z,23.90
2022-11-25T04:28:14.089Z,25.27
2022-11-25T04:31:18.910Z,21.45
2022-11-25T04:34:19.849Z,19.67
2022-11-25T04:37:20.854Z,17.38
2022-11-25T04:40:21.890Z,27.13
2022-11-25T04:43:31.025Z,19.02
2022-11-25T04:46:38.926Z,19.08
2022-11-25T04:49:39.835Z,25.92
2022-11-25T04:52:33.823Z,35.45
2022-11-25T04:55:34.824Z,23.65
2022-11-25T04:58:51.844Z,36.17
2022-11-25T05:01:52.900Z,33.70
2022-11-25T05:05:07.829Z,31.80
2022-11-25T05:08:09.837Z,24.83
2022-11-25T05:11:12.838Z,31.10
2022-11-25T05:14:13.903Z,22.98
2022-11-25T05:17:16.842Z,26.15
2022-11-25T05:20:18.862Z,24.55
2022-11-25T05:23:19.953Z,23.58
2022-11-25T05:26:20.882Z,34.00
2022-11-25T05:29:25.186Z,27.38
2022-11-25T05:32:25.869Z,37.08
2022-11-25T05:35:27.845Z,32.53
2022-11-25T05:38:28.844Z,25.25
2022-11-25T05:41:30.966Z,32.78
2022-11-25T05:44:33.854Z,35.50
2022-11-25T05:47:34.854Z,28.08
2022-11-25T05:50:35.848Z,31.27
2022-11-25T05:53:49.905Z,35.95
2022-11-25T05:56:54.933Z,29.90
2022-11-25T05:59:59.861Z,24.08
2022-11-25T06:03:05.006Z,41.28
2022-11-25T06:06:07.145Z,30.08
2022-11-25T06:09:08.872Z,29.77
2022-11-25T06:12:10.037Z,45.72
2022-11-25T06:15:15.860Z,30.23
2022-11-25T06:18:18.925Z,38.10
2022-11-25T06:21:20.851Z,27.05
2022-11-25T06:24:23.885Z,32.08
2022-11-25T06:27:44.011Z,44.03
2022-11-25T06:30:50.234Z,44.05
2022-11-25T06:33:59.881Z,27.45
2022-11-25T06:37:02.896Z,27.42
2022-11-25T06:40:03.899Z,32.10
2022-11-25T06:43:04.864Z,30.60
2022-11-25T06:46:06.009Z,29.40
2022-11-25T06:49:06.924Z,33.20
2022-11-25T06:52:07.912Z,25.50
2022-11-25T06:55:08.873Z,35.60
2022-11-25T06:58:28.387Z,35.53
2022-11-25T07:01:34.998Z,26.08
2022-11-25T07:04:36.123Z,39.72
2022-11-25T07:07:36.934Z,36.67
2022-11-25T07:10:37.894Z,30.40
2022-11-25T07:13:38.925Z,36.25
2022-11-25T07:16:39.899Z,28.95
2022-11-25T07:19:41.956Z,33.30
2022-11-25T07:22:42.898Z,34.80
2022-11-25T07:25:45.892Z,38.88
2022-11-25T07:28:47.940Z,29.73
2022-11-25T07:31:58.943Z,37.40
2022-11-25T07:34:59.878Z,35.17
2022-11-25T07:38:00.935Z,25.15
2022-11-25T07:41:01.926Z,27.67
2022-11-25T07:44:04.999Z,29.45
2022-11-25T07:47:15.892Z,26.02
2022-11-25T07:50:16.895Z,27.90
2022-11-25T07:53:17.970Z,43.00
2022-11-25T07:56:18.938Z,19.35
2022-11-25T07:59:20.897Z,40.08
2022-11-25T08:02:16.039Z,37.47
2022-11-25T08:05:16.927Z,30.25
2022-11-25T08:08:17.909Z,44.45
2022-11-25T08:11:23.956Z,29.70
2022-11-25T08:14:24.913Z,24.33
2022-11-25T08:17:26.947Z,33.00
2022-11-25T08:20:27.915Z,30.67
2022-11-25T08:23:28.915Z,33.67
2022-11-25T08:26:51.917Z,29.08
2022-11-25T08:29:52.938Z,43.28
2022-11-25T08:32:53.939Z,38.53
2022-11-25T08:35:54.944Z,23.00
2022-11-25T08:38:55.951Z,37.75
2022-11-25T08:41:56.916Z,23.30
2022-11-25T08:44:59.944Z,22.35
2022-11-25T08:48:00.932Z,23.00
2022-11-25T08:51:06.937Z,24.23
2022-11-25T08:54:07.980Z,32.15
2022-11-25T08:57:08.921Z,21.52
2022-11-25T09:00:10.928Z,26.20
2022-11-25T09:03:13.009Z,25.15
2022-11-25T09:06:14.953Z,21.50
2022-11-25T09:09:15.951Z,22.05
2022-11-25T09:12:16.941Z,21.15
2022-11-25T09:15:17.957Z,14.52
2022-11-25T09:18:21.986Z,19.42
2022-11-25T09:21:25.316Z,10.65
2022-11-25T09:24:25.949Z,21.90
2022-11-25T09:27:26.941Z,17.60
2022-11-25T09:30:27.933Z,25.10
2022-11-25T09:33:28.944Z,17.23
2022-11-25T09:36:30.966Z,11.73
2022-11-25T09:39:36.087Z,13.07
2022-11-25T09:43:12.944Z,16.50
2022-11-25T09:46:41.044Z,18.58
2022-11-25T09:49:53.982Z,15.73
2022-11-25T09:53:16.953Z,12.90
2022-11-25T09:56:23.950Z,12.82
2022-11-25T09:59:40.977Z,11.80
2022-11-25T10:02:52.105Z,15.93
2022-11-25T10:05:57.986Z,14.57
2022-11-25T10:09:26.984Z,20.48
2022-11-25T10:12:43.987Z,14.60
2022-11-25T10:15:53.026Z,9.27
2022-11-25T10:18:57.988Z,18.52
2022-11-25T10:21:58.950Z,20.38
2022-11-25T10:24:59.972Z,13.98
2022-11-25T10:28:09.995Z,12.18
2022-11-25T10:31:26.050Z,15.68
2022-11-25T10:34:53.993Z,14.15
2022-11-25T10:37:55.959Z,10.45
2022-11-25T10:40:57.979Z,15.63
2022-11-25T10:43:59.978Z,16.27
2022-11-25T10:50:27.007Z,15.95
2022-11-25T10:53:45.975Z,11.27
2022-11-25T10:56:56.028Z,17.88
2022-11-25T11:00:15.672Z,19.45
2022-11-25T11:03:29.991Z,10.20
2022-11-25T11:06:50.993Z,15.15
2022-11-25T11:09:54.986Z,13.83
2022-11-25T11:13:15.999Z,12.27
2022-11-25T11:16:17.113Z,19.60
2022-11-25T11:19:18.020Z,16.67
2022-11-25T11:22:30.019Z,12.95
2022-11-25T11:25:34.008Z,14.52
2022-11-25T11:28:52.014Z,15.60
2022-11-25T11:31:58.038Z,16.92
2022-11-25T11:35:16.998Z,13.07
2022-11-25T11:38:33.005Z,13.98
2022-11-25T11:41:53.997Z,13.93
2022-11-25T11:45:39.032Z,11.13
2022-11-25T11:48:53.532Z,16.83
2022-11-25T11:52:03.037Z,16.67
2022-11-25T11:55:07.030Z,14.80
2022-11-25T11:58:22.037Z,16.48
2022-11-25T12:01:56.115Z,11.75
2022-11-25T12:05:24.029Z,14.75
2022-11-25T12:08:29.052Z,14.85
2022-11-25T12:11:34.025Z,19.05
2022-11-25T12:14:46.047Z,18.73
2022-11-25T12:17:52.053Z,13.85
2022-11-25T12:21:09.044Z,14.35
2022-11-25T12:24:13.350Z,22.45
2022-11-25T12:27:24.023Z,14.90
2022-11-25T12:30:34.120Z,12.10
2022-11-25T12:33:57.052Z,19.77
2022-11-25T12:36:59.073Z,16.30
2022-11-25T12:40:09.037Z,15.45
2022-11-25T12:43:26.099Z,10.57
2022-11-25T12:46:39.044Z,13.57
2022-11-25T12:49:42.068Z,16.00
2022-11-25T12:53:11.062Z,18.17
2022-11-25T12:56:13.112Z,18.38
2022-11-25T12:59:50.061Z,13.15
2022-11-25T13:03:34.051Z,12.60
2022-11-25T13:06:45.056Z,16.15
2022-11-25T13:10:23.060Z,22.33
2022-11-25T13:13:35.531Z,17.60
2022-11-25T13:16:36.452Z,18.27
2022-11-25T13:19:37.078Z,11.77
2022-11-25T13:22:38.078Z,18.27
2022-11-25T13:25:39.048Z,11.52
2022-11-25T13:28:52.085Z,16.17
2022-11-25T13:32:15.086Z,15.88
2022-11-25T13:35:35.093Z,11.43
2022-11-25T13:38:49.105Z,20.75
2022-11-25T13:41:55.097Z,9.73
2022-11-25T13:45:08.045Z,12.40
2022-11-25T13:48:10.087Z,9.88
2022-11-25T13:51:33.073Z,11.50
2022-11-25T13:54:36.412Z,11.18
2022-11-25T13:57:45.092Z,13.82
2022-11-25T14:00:49.093Z,8.45
2022-11-25T14:04:01.093Z,9.40
2022-11-25T14:07:20.436Z,12.55
2022-11-25T14:10:39.068Z,9.65
2022-11-25T14:14:05.112Z,11.95
2022-11-25T14:17:27.093Z,11.20
2022-11-25T14:20:35.132Z,12.50
2022-11-25T14:24:07.106Z,13.45
2022-11-25T14:27:12.134Z,9.73
2022-11-25T14:30:21.106Z,11.68
2022-11-25T14:33:25.117Z,10.48
2022-11-25T14:36:28.092Z,9.48
2022-11-25T14:39:46.112Z,17.13
2022-11-25T14:42:51.102Z,12.40
2022-11-25T14:45:52.183Z,18.08
2022-11-25T14:48:53.095Z,21.85
2022-11-25T14:51:55.097Z,15.77
2022-11-25T14:54:58.109Z,25.60
2022-11-25T14:57:59.088Z,16.13
2022-11-25T15:01:13.128Z,8.68
2022-11-25T15:04:16.140Z,14.23
2022-11-25T15:07:32.144Z,13.80
2022-11-25T15:10:56.111Z,15.52
2022-11-25T15:13:59.139Z,13.82
2022-11-25T15:17:00.198Z,17.90
2022-11-25T15:20:01.199Z,16.02
2022-11-25T15:23:04.131Z,12.13
2022-11-25T15:26:06.135Z,10.98
2022-11-25T15:29:09.168Z,9.13
2022-11-25T15:32:12.190Z,10.05
2022-11-25T15:35:14.139Z,12.45
2022-11-25T15:38:31.141Z,13.32
2022-11-25T15:41:33.142Z,12.70
2022-11-25T15:44:52.172Z,13.35
2022-11-25T15:47:53.172Z,18.75
2022-11-25T15:50:54.150Z,16.02
2022-11-25T15:53:56.179Z,14.55
2022-11-25T15:57:02.122Z,10.80
2022-11-25T16:00:11.125Z,15.50
2022-11-25T16:03:12.138Z,15.95
2022-11-25T16:06:13.137Z,14.63
2022-11-25T16:09:15.163Z,8.07
2022-11-25T16:12:20.150Z,20.55
2022-11-25T16:15:30.149Z,11.65
2022-11-25T16:18:40.350Z,16.70
2022-11-25T16:21:49.120Z,14.77
2022-11-25T16:25:02.029Z,16.92
2022-11-25T16:28:07.176Z,10.02
2022-11-25T16:31:09.136Z,10.73
2022-11-25T16:34:15.136Z,14.45
2022-11-25T16:37:16.168Z,15.98
2022-11-25T16:40:18.177Z,9.98
2022-11-25T16:43:21.143Z,11.32
2022-11-25T16:46:27.208Z,11.98
2022-11-25T16:49:29.167Z,14.02
2022-11-25T16:52:30.154Z,6.38
2022-11-25T16:55:31.261Z,22.10
2022-11-25T16:58:28.158Z,11.70
2022-11-25T17:01:31.219Z,11.38
2022-11-25T17:04:32.159Z,11.32
2022-11-25T17:07:35.876Z,13.45
2022-11-25T17:10:36.176Z,16.88
2022-11-25T17:13:37.161Z,20.73
2022-11-25T17:16:40.188Z,16.75
2022-11-25T17:19:41.587Z,13.73
2022-11-25T17:22:42.180Z,13.25
2022-11-25T17:25:43.198Z,17.15
2022-11-25T17:28:44.188Z,19.17
2022-11-25T17:31:46.276Z,15.50
2022-11-25T17:34:47.164Z,17.77
2022-11-25T17:37:48.178Z,23.58
2022-11-25T17:40:49.145Z,12.35
2022-11-25T17:43:51.216Z,18.70
2022-11-25T17:46:52.185Z,15.73
2022-11-25T17:49:53.237Z,14.60
2022-11-25T17:52:54.193Z,17.00
2022-11-25T17:55:55.222Z,14.63
2022-11-25T17:58:56.189Z,14.35
2022-11-25T18:01:57.300Z,19.70
2022-11-25T18:04:58.186Z,17.17
2022-11-25T18:07:59.286Z,17.58
2022-11-25T18:11:00.203Z,14.10
2022-11-25T18:14:02.209Z,25.75
2022-11-25T18:17:03.266Z,18.42
2022-11-25T18:20:04.196Z,21.70
2022-11-25T18:23:06.477Z,22.77
2022-11-25T18:26:10.378Z,16.50
2022-11-25T18:29:11.255Z,22.30
2022-11-25T18:32:12.181Z,22.70
2022-11-25T18:35:13.203Z,17.50
2022-11-25T18:38:14.217Z,18.05
2022-11-25T18:41:15.203Z,21.70
2022-11-25T18:44:16.201Z,23.30
2022-11-25T18:47:12.228Z,19.85
2022-11-25T18:50:06.455Z,16.55
2022-11-25T18:53:08.212Z,17.30
2022-11-25T18:56:12.518Z,22.85
2022-11-25T18:59:15.203Z,28.65
2022-11-25T19:02:16.256Z,20.38
2022-11-25T19:05:29.190Z,21.17
2022-11-25T19:08:30.195Z,22.55
2022-11-25T19:11:33.214Z,28.50
2022-11-25T19:14:49.228Z,18.35
2022-11-25T19:17:50.326Z,21.58
2022-11-25T19:20:51.217Z,27.10
2022-11-25T19:23:52.262Z,24.65
2022-11-25T19:26:57.224Z,27.40
2022-11-25T19:29:58.400Z,30.08
2022-11-25T19:33:04.265Z,25.38
2022-11-25T19:35:58.267Z,21.65
2022-11-25T19:38:59.238Z,29.13
2022-11-25T19:42:01.206Z,19.00
2022-11-25T19:45:04.372Z,34.83
2022-11-25T19:48:05.259Z,38.38
2022-11-25T19:51:06.221Z,27.45
2022-11-25T19:54:07.237Z,21.00
2022-11-25T19:57:08.203Z,27.38
2022-11-25T20:00:09.368Z,28.58
2022-11-25T20:03:10.214Z,27.30
2022-11-25T20:06:04.265Z,31.33
2022-11-25T20:09:08.018Z,34.83
2022-11-25T20:12:13.365Z,27.15
2022-11-25T20:15:14.434Z,29.55
2022-11-25T20:18:18.185Z,40.45
2022-11-25T20:21:19.264Z,26.70
2022-11-25T20:24:26.432Z,31.15
2022-11-25T20:27:27.236Z,28.48
2022-11-25T20:30:34.259Z,37.35
2022-11-25T20:33:35.267Z,25.13
2022-11-25T20:36:46.239Z,27.25
2022-11-25T20:39:47.281Z,28.65
2022-11-25T20:42:49.244Z,30.63
2022-11-25T20:45:50.380Z,33.13
2022-11-25T20:48:51.316Z,41.33
2022-11-25T20:51:54.276Z,32.90
2022-11-25T20:54:55.263Z,41.55
2022-11-25T20:57:57.285Z,24.65
2022-11-25T21:00:58.440Z,34.10
2022-11-25T21:04:00.355Z,42.10
2022-11-25T21:07:01.237Z,29.58
2022-11-25T21:10:02.401Z,42.92
2022-11-25T21:13:03.266Z,41.10
2022-11-25T21:16:04.344Z,27.00
2022-11-25T21:19:05.349Z,44.10
2022-11-25T21:22:06.302Z,32.78
2022-11-25T21:25:08.288Z,21.10
2022-11-25T21:28:09.615Z,30.30
2022-11-25T21:31:07.113Z,40.65
2022-11-25T21:34:12.301Z,33.75
2022-11-25T21:37:13.271Z,38.00
2022-11-25T21:40:14.299Z,36.95
2022-11-25T21:43:21.040Z,35.90
2022-11-25T21:46:27.376Z,31.63
2022-11-25T21:49:28.326Z,37.08
2022-11-25T21:52:29.272Z,36.65
2022-11-25T21:55:30.411Z,33.40
2022-11-25T21:58:41.346Z,36.85
2022-11-25T22:01:42.463Z,35.60
2022-11-25T22:04:43.710Z,35.08
2022-11-25T22:07:44.325Z,38.35
2022-11-25T22:10:45.321Z,43.38
2022-11-25T22:13:51.349Z,38.50
2022-11-25T22:16:53.327Z,34.75
2022-11-25T22:19:54.409Z,44.47
2022-11-25T22:22:55.296Z,45.60
2022-11-25T22:25:56.401Z,47.60
2022-11-25T22:29:02.317Z,46.67
2022-11-25T22:32:05.998Z,34.55
2022-11-25T22:35:10.329Z,45.20
2022-11-25T22:38:12.319Z,57.63
2022-11-25T22:41:16.340Z,36.10
2022-11-25T22:44:17.317Z,45.08
2022-11-25T22:47:18.321Z,41.25
2022-11-25T22:50:41.387Z,43.13
2022-11-25T22:53:42.305Z,49.17
2022-11-25T22:56:43.306Z,50.67
2022-11-25T22:59:44.772Z,43.15
2022-11-25T23:02:46.381Z,37.65
2022-11-25T23:05:49.317Z,48.42
2022-11-25T23:08:50.320Z,37.20
2022-11-25T23:11:51.343Z,40.20
2022-11-25T23:14:52.362Z,44.67
2022-11-25T23:17:54.374Z,47.28
2022-11-25T23:20:55.347Z,39.85
2022-11-25T23:23:57.405Z,41.42
2022-11-25T23:26:51.329Z,33.40
2022-11-25T23:29:52.327Z,48.80
2022-11-25T23:32:53.321Z,35.97
2022-11-25T23:35:54.321Z,40.22
2022-11-25T23:38:58.295Z,39.63
2022-11-25T23:41:59.333Z,46.67
2022-11-25T23:45:00.365Z,58.80
2022-11-25T23:48:03.324Z,55.97
2022-11-25T23:51:04.322Z,38.63
2022-11-25T23:54:05.625Z,46.63
2022-11-25T23:57:06.298Z,54.97
